Time;durP1;ratioP1;P1;durP2;ratioP2;P2;SDS_P1;SDS_P2;PMS_P1;PMS_P2;Temp;Humidity;BMP_temperature;BMP_pressure;BME280_temperature;BME280_humidity;BME280_pressure;Samples;Min_cycle;Max_cycle;Signal;HPM_P1;HPM_P2
2024/03/24 00:01:49;;;;;;;2.10;1.30;;;;;;;;;;7573339;19;20018;-74
2024/03/24 00:04:21;;;;;;;2.45;1.38;;;;;;;;;;7573001;19;20279;-76
2024/03/24 00:06:52;;;;;;;4.57;1.40;;;;;;;;;;7577310;19;20022;-73
2024/03/24 00:09:24;;;;;;;3.33;2.08;;;;;;;;;;7563593;19;20095;-75
2024/03/24 00:11:56;;;;;;;5.00;2.30;;;;;;;;;;7568615;19;20022;-75
2024/03/24 00:14:28;;;;;;;5.50;2.58;;;;;;;;;;7584756;19;20064;-74
2024/03/24 00:16:59;;;;;;;7.45;4.60;;;;;;;;;;7590324;19;20027;-76
2024/03/24 00:19:31;;;;;;;10.27;5.40;;;;;;;;;;7573695;19;22679;-73
2024/03/24 00:22:03;;;;;;;6.78;3.65;;;;;;;;;;7585587;19;20089;-73
2024/03/24 00:24:34;;;;;;;3.63;2.05;;;;;;;;;;7565116;19;20807;-73
2024/03/24 00:27:06;;;;;;;4.78;2.05;;;;;;;;;;7576433;19;20018;-73
2024/03/24 00:29:38;;;;;;;5.68;2.20;;;;;;;;;;7582216;19;20426;-73
2024/03/24 00:32:11;;;;;;;4.63;2.67;;;;;;;;;;7576116;19;20017;-73
2024/03/24 00:34:45;;;;;;;2.78;1.48;;;;;;;;;;7577877;19;20395;-74
2024/03/24 00:37:17;;;;;;;4.85;1.60;;;;;;;;;;7581434;19;20093;-73
2024/03/24 00:39:48;;;;;;;3.53;1.65;;;;;;;;;;7583136;19;20831;-73
2024/03/24 00:42:20;;;;;;;5.20;1.50;;;;;;;;;;7581642;19;20054;-73
2024/03/24 00:44:52;;;;;;;3.33;1.27;;;;;;;;;;7580595;19;21395;-73
2024/03/24 00:47:23;;;;;;;3.17;2.00;;;;;;;;;;7581299;19;20028;-73
2024/03/24 00:49:55;;;;;;;3.30;1.55;;;;;;;;;;7566842;19;20629;-73
2024/03/24 00:52:27;;;;;;;3.03;1.77;;;;;;;;;;7575001;19;20026;-73
2024/03/24 00:54:59;;;;;;;4.68;1.50;;;;;;;;;;7577293;19;20022;-73
2024/03/24 00:57:31;;;;;;;3.60;1.60;;;;;;;;;;7576538;19;20400;-73
2024/03/24 01:00:06;;;;;;;5.18;1.98;;;;;;;;;;7585699;19;20391;-73
2024/03/24 01:02:38;;;;;;;5.72;1.90;;;;;;;;;;7577953;19;20018;-73
2024/03/24 01:05:10;;;;;;;5.00;1.55;;;;;;;;;;7572744;19;20033;-73
2024/03/24 01:07:41;;;;;;;5.13;1.60;;;;;;;;;;7582718;19;20021;-73
2024/03/24 01:10:13;;;;;;;6.40;1.80;;;;;;;;;;7580125;19;20014;-73
2024/03/24 01:12:49;;;;;;;2.67;1.40;;;;;;;;;;7582239;19;20014;-73
2024/03/24 01:15:21;;;;;;;3.97;1.30;;;;;;;;;;7578527;19;20022;-73
2024/03/24 01:17:52;;;;;;;2.95;1.38;;;;;;;;;;7576631;19;20526;-73
2024/03/24 01:20:24;;;;;;;3.58;1.48;;;;;;;;;;7559672;19;20023;-73
2024/03/24 01:22:56;;;;;;;4.03;1.25;;;;;;;;;;7574587;19;20018;-73
2024/03/24 01:25:29;;;;;;;4.72;1.70;;;;;;;;;;7584918;19;20033;-74
2024/03/24 01:28:00;;;;;;;3.20;1.20;;;;;;;;;;7574814;19;20056;-76
2024/03/24 01:30:32;;;;;;;2.05;1.20;;;;;;;;;;7581766;19;20594;-73
2024/03/24 01:33:04;;;;;;;2.55;1.30;;;;;;;;;;7593677;19;20033;-75
2024/03/24 01:35:36;;;;;;;3.10;1.17;;;;;;;;;;7576610;19;20014;-73
2024/03/24 01:38:07;;;;;;;2.95;1.30;;;;;;;;;;7586769;19;20052;-73
2024/03/24 01:40:46;;;;;;;1.65;1.17;;;;;;;;;;7559158;19;20048;-71
2024/03/24 01:43:18;;;;;;;4.68;1.40;;;;;;;;;;7588341;19;20023;-75
2024/03/24 01:45:49;;;;;;;1.90;1.10;;;;;;;;;;7582465;19;20043;-75
2024/03/24 01:48:21;;;;;;;2.17;1.40;;;;;;;;;;7589080;19;20290;-74
2024/03/24 01:50:53;;;;;;;2.45;1.13;;;;;;;;;;7594066;19;21510;-73
2024/03/24 01:53:24;;;;;;;6.63;1.35;;;;;;;;;;7595753;19;20028;-74
2024/03/24 01:55:56;;;;;;;1.33;1.00;;;;;;;;;;7588700;19;20674;-73
2024/03/24 01:58:28;;;;;;;2.90;1.00;;;;;;;;;;7592682;19;20706;-75
2024/03/24 02:01:00;;;;;;;1.85;0.90;;;;;;;;;;7594641;19;20029;-74
2024/03/24 02:03:32;;;;;;;2.78;1.63;;;;;;;;;;7596273;19;20018;-73
2024/03/24 02:06:05;;;;;;;3.63;1.30;;;;;;;;;;7598931;19;20881;-74
2024/03/24 02:08:36;;;;;;;3.38;0.77;;;;;;;;;;7607496;19;20021;-74
2024/03/24 02:11:08;;;;;;;1.45;1.15;;;;;;;;;;7607922;19;20022;-74
2024/03/24 02:13:40;;;;;;;4.25;1.10;;;;;;;;;;7599071;19;20040;-74
2024/03/24 02:16:12;;;;;;;2.25;1.10;;;;;;;;;;7605986;19;20116;-75
2024/03/24 02:18:43;;;;;;;2.47;0.70;;;;;;;;;;7603921;19;20019;-74
2024/03/24 02:21:15;;;;;;;1.02;0.93;;;;;;;;;;7594539;19;20513;-73
2024/03/24 02:23:50;;;;;;;2.30;0.63;;;;;;;;;;7589811;19;20756;-74
2024/03/24 02:26:22;;;;;;;1.98;1.50;;;;;;;;;;7599874;19;20007;-74
2024/03/24 02:28:55;;;;;;;1.42;0.98;;;;;;;;;;7583447;19;20032;-74
2024/03/24 02:31:27;;;;;;;5.18;1.40;;;;;;;;;;7580264;19;20875;-74
2024/03/24 02:33:58;;;;;;;2.85;1.25;;;;;;;;;;7589072;19;21553;-74
2024/03/24 02:36:30;;;;;;;2.67;1.25;;;;;;;;;;7593046;19;20484;-75
2024/03/24 02:39:01;;;;;;;1.60;1.10;;;;;;;;;;7598408;19;20022;-74
2024/03/24 02:41:33;;;;;;;1.90;1.38;;;;;;;;;;7604134;19;20017;-75
2024/03/24 02:44:04;;;;;;;2.28;1.38;;;;;;;;;;7598728;19;20015;-75
2024/03/24 02:46:36;;;;;;;2.35;1.00;;;;;;;;;;7589035;19;20015;-75
2024/03/24 02:49:08;;;;;;;5.50;1.77;;;;;;;;;;7586134;19;20513;-74
2024/03/24 02:51:39;;;;;;;2.20;0.98;;;;;;;;;;7591431;19;20098;-74
2024/03/24 02:54:11;;;;;;;1.95;1.27;;;;;;;;;;7597549;19;20022;-75
2024/03/24 02:56:42;;;;;;;2.65;0.98;;;;;;;;;;7587720;19;21103;-75
2024/03/24 02:59:14;;;;;;;2.13;1.17;;;;;;;;;;7580610;19;20990;-75
2024/03/24 03:01:47;;;;;;;;;;;;;;;;;;7584514;19;20019;-75
2024/03/24 03:04:19;;;;;;;2.60;1.17;;;;;;;;;;7569212;19;19927;-75
2024/03/24 03:06:50;;;;;;;2.47;1.35;;;;;;;;;;7590057;19;20022;-75
2024/03/24 03:09:22;;;;;;;4.10;1.25;;;;;;;;;;7583607;19;20024;-75
2024/03/24 03:11:54;;;;;;;3.53;0.95;;;;;;;;;;7566944;19;20018;-75
2024/03/24 03:14:25;;;;;;;2.28;1.10;;;;;;;;;;7582689;19;20010;-75
2024/03/24 03:16:57;;;;;;;2.60;1.20;;;;;;;;;;7588378;19;20074;-76
2024/03/24 03:19:28;;;;;;;3.08;2.05;;;;;;;;;;7581660;19;20383;-74
2024/03/24 03:22:00;;;;;;;4.72;2.03;;;;;;;;;;7576448;19;20018;-75
2024/03/24 03:24:31;;;;;;;1.83;1.40;;;;;;;;;;7592088;19;20750;-75
2024/03/24 03:27:04;;;;;;;11.65;1.85;;;;;;;;;;7577663;19;20029;-76
2024/03/24 03:29:36;;;;;;;4.70;2.30;;;;;;;;;;7593915;19;20525;-75
2024/03/24 03:32:07;;;;;;;4.57;2.20;;;;;;;;;;7590063;19;20014;-74
2024/03/24 03:34:39;;;;;;;6.95;2.60;;;;;;;;;;7584163;19;20026;-75
2024/03/24 03:37:10;;;;;;;5.72;2.33;;;;;;;;;;7564551;19;20010;-75
2024/03/24 03:39:42;;;;;;;4.53;2.60;;;;;;;;;;7590067;19;20168;-75
2024/03/24 03:42:14;;;;;;;3.30;2.10;;;;;;;;;;7576725;19;20109;-75
2024/03/24 03:44:52;;;;;;;2.75;1.80;;;;;;;;;;7578624;19;20615;-74
2024/03/24 03:47:26;;;;;;;4.57;1.33;;;;;;;;;;7581109;19;20029;-74
2024/03/24 03:49:57;;;;;;;;;;;;;;;;;;7560412;19;20011;-74
2024/03/24 03:52:29;;;;;;;;;;;;;;;;;;7573669;19;19978;-74
2024/03/24 03:55:04;;;;;;;;;;;;;;;;;;7567155;19;19930;-74
2024/03/24 03:57:35;;;;;;;;;;;;;;;;;;7584511;19;19974;-73
2024/03/24 04:00:10;;;;;;;;;;;;;;;;;;7568522;19;20347;-74
2024/03/24 04:02:44;;;;;;;;;;;;;;;;;;7585293;19;19932;-75
2024/03/24 04:05:17;;;;;;;;;;;;;;;;;;7582927;19;21707;-75
2024/03/24 04:07:48;;;;;;;;;;;;;;;;;;7574516;19;20768;-74
2024/03/24 04:10:20;;;;;;;;;;;;;;;;;;7557288;19;20261;-75
2024/03/24 04:12:52;;;;;;;;;;;;;;;;;;7558878;19;20519;-75
2024/03/24 04:15:23;;;;;;;;;;;;;;;;;;7570830;19;20409;-75
2024/03/24 04:17:55;;;;;;;;;;;;;;;;;;7571978;19;19951;-75
2024/03/24 04:20:27;;;;;;;;;;;;;;;;;;7586531;19;20015;-75
2024/03/24 04:22:58;;;;;;;;;;;;;;;;;;7588595;19;20367;-75
2024/03/24 04:25:29;;;;;;;;;;;;;;;;;;7583862;19;19930;-75
2024/03/24 04:28:01;;;;;;;;;;;;;;;;;;7576111;19;20996;-75
2024/03/24 04:30:33;;;;;;;;;;;;;;;;;;7584247;19;20428;-75
2024/03/24 04:33:04;;;;;;;;;;;;;;;;;;7580440;19;20495;-75
2024/03/24 04:35:36;;;;;;;;;;;;;;;;;;7579149;19;19919;-75
2024/03/24 04:38:08;;;;;;;;;;;;;;;;;;7572117;19;19923;-75
2024/03/24 04:40:39;;;;;;;;;;;;;;;;;;7567366;19;19945;-74
2024/03/24 04:43:13;;;;;;;;;;;;;;;;;;7581872;19;20426;-75
2024/03/24 04:45:45;;;;;;;;;;;;;;;;;;7584564;19;19927;-73
2024/03/24 04:48:17;;;;;;;;;;;;;;;;;;7573859;19;20059;-75
2024/03/24 04:50:50;;;;;;;;;;;;;;;;;;7573544;19;19927;-75
2024/03/24 04:53:21;;;;;;;;;;;;;;;;;;7583484;19;19923;-75
2024/03/24 04:55:53;;;;;;;;;;;;;;;;;;7576427;19;19984;-75
2024/03/24 04:58:25;;;;;;;;;;;;;;;;;;7581415;19;20430;-75
2024/03/24 05:00:56;;;;;;;;;;;;;;;;;;7578751;19;19918;-75
2024/03/24 05:03:29;;;;;;;;;;;;;;;;;;7573640;19;19918;-75
2024/03/24 05:06:00;;;;;;;;;;;;;;;;;;7582053;19;19929;-75
2024/03/24 05:08:37;;;;;;;;;;;;;;;;;;7566944;19;19923;-75
2024/03/24 05:11:11;;;;;;;;;;;;;;;;;;7561566;19;19922;-75
2024/03/24 05:13:43;;;;;;;;;;;;;;;;;;7586750;19;21024;-75
2024/03/24 05:16:14;;;;;;;;;;;;;;;;;;7558321;19;19930;-75
2024/03/24 05:18:46;;;;;;;;;;;;;;;;;;7582414;19;19937;-75
2024/03/24 05:21:17;;;;;;;;;;;;;;;;;;7562703;19;19927;-75
2024/03/24 05:23:48;;;;;;;;;;;;;;;;;;7575602;19;19936;-75
2024/03/24 05:26:20;;;;;;;;;;;;;;;;;;7575776;19;19938;-75
2024/03/24 05:28:53;;;;;;;;;;;;;;;;;;7589711;19;19932;-75
2024/03/24 05:31:25;;;;;;;;;;;;;;;;;;7575536;19;19961;-75
2024/03/24 05:33:56;;;;;;;;;;;;;;;;;;7579268;19;19922;-75
2024/03/24 05:36:28;;;;;;;;;;;;;;;;;;7583689;19;20025;-75
2024/03/24 05:38:59;;;;;;;;;;;;;;;;;;7575926;19;19929;-74
2024/03/24 05:41:31;;;;;;;;;;;;;;;;;;7594686;19;20671;-74
2024/03/24 05:44:02;;;;;;;;;;;;;;;;;;7588249;19;20272;-74
2024/03/24 05:46:34;;;;;;;;;;;;;;;;;;7559132;19;20897;-74
2024/03/24 05:49:06;;;;;;;;;;;;;;;;;;7580025;19;19922;-74
2024/03/24 05:51:37;;;;;;;;;;;;;;;;;;7566960;19;19931;-74
2024/03/24 05:54:09;;;;;;;;;;;;;;;;;;7569718;19;19926;-74
2024/03/24 05:56:41;;;;;;;;;;;;;;;;;;7599838;19;19914;-74
2024/03/24 05:59:12;;;;;;;;;;;;;;;;;;7576691;19;19929;-75
2024/03/24 06:01:44;;;;;;;;;;;;;;;;;;7581223;19;21092;-74
2024/03/24 06:04:15;;;;;;;;;;;;;;;;;;7579228;19;19926;-75
2024/03/24 06:06:47;;;;;;;;;;;;;;;;;;7579533;19;19994;-75
2024/03/24 06:09:18;;;;;;;;;;;;;;;;;;7567279;19;20762;-75
2024/03/24 06:11:50;;;;;;;;;;;;;;;;;;7578498;19;20272;-75
2024/03/24 06:14:21;;;;;;;;;;;;;;;;;;7571442;19;19931;-75
2024/03/24 06:16:53;;;;;;;;;;;;;;;;;;7556516;19;19939;-75
2024/03/24 06:19:24;;;;;;;;;;;;;;;;;;7526817;19;20373;-74
2024/03/24 06:21:57;;;;;;;;;;;;;;;;;;7557475;19;19915;-71
2024/03/24 06:24:28;;;;;;;;;;;;;;;;;;7555103;19;19930;-70
2024/03/24 06:27:00;;;;;;;;;;;;;;;;;;7557611;19;19915;-72
2024/03/24 06:29:32;;;;;;;;;;;;;;;;;;7564314;19;19930;-75
2024/03/24 06:32:03;;;;;;;;;;;;;;;;;;7570193;19;19933;-74
2024/03/24 06:34:35;;;;;;;;;;;;;;;;;;7570416;19;20893;-73
2024/03/24 06:37:06;;;;;;;;;;;;;;;;;;7581607;19;19926;-73
2024/03/24 06:39:38;;;;;;;;;;;;;;;;;;7586521;19;19919;-72
2024/03/24 06:42:09;;;;;;;;;;;;;;;;;;7566549;19;20809;-71
2024/03/24 06:44:42;;;;;;;;;;;;;;;;;;7564621;19;20600;-72
2024/03/24 06:47:14;;;;;;;;;;;;;;;;;;7563720;19;20237;-73
2024/03/24 06:49:45;;;;;;;;;;;;;;;;;;7577116;19;20379;-74
2024/03/24 06:52:17;;;;;;;;;;;;;;;;;;7561562;19;20343;-74
2024/03/24 06:54:49;;;;;;;;;;;;;;;;;;7579184;19;19923;-72
2024/03/24 06:57:21;;;;;;;;;;;;;;;;;;7567474;19;19941;-71
2024/03/24 06:59:52;;;;;;;;;;;;;;;;;;7570728;19;19930;-75
2024/03/24 07:02:23;;;;;;;;;;;;;;;;;;7570117;19;20293;-74
2024/03/24 07:04:57;;;;;;;;;;;;;;;;;;7561380;19;21038;-73
2024/03/24 07:07:28;;;;;;;;;;;;;;;;;;7570227;19;21114;-75
2024/03/24 07:10:01;;;;;;;;;;;;;;;;;;7587146;19;19923;-72
2024/03/24 07:12:33;;;;;;;;;;;;;;;;;;7569025;19;19936;-73
2024/03/24 07:15:05;;;;;;;;;;;;;;;;;;7572919;19;19943;-72
2024/03/24 07:17:37;;;;;;;;;;;;;;;;;;7566304;19;19923;-71
2024/03/24 07:20:09;;;;;;;;;;;;;;;;;;7577063;19;19918;-73
2024/03/24 07:22:40;;;;;;;;;;;;;;;;;;7568027;19;20002;-72
2024/03/24 07:25:12;;;;;;;;;;;;;;;;;;7577844;19;19923;-71
2024/03/24 07:27:46;;;;;;;;;;;;;;;;;;7564934;19;20002;-72
2024/03/24 07:30:17;;;;;;;;;;;;;;;;;;7559007;19;20016;-72
2024/03/24 07:32:49;;;;;;;;;;;;;;;;;;7574197;19;19922;-73
2024/03/24 07:35:21;;;;;;;;;;;;;;;;;;7580236;19;19927;-73
2024/03/24 07:37:52;;;;;;;;;;;;;;;;;;7572333;19;19922;-71
2024/03/24 07:40:24;;;;;;;;;;;;;;;;;;7580605;19;19994;-73
2024/03/24 07:42:56;;;;;;;;;;;;;;;;;;7579200;19;19927;-72
2024/03/24 07:45:27;;;;;;;;;;;;;;;;;;7566313;19;20309;-73
2024/03/24 07:47:59;;;;;;;;;;;;;;;;;;7537650;19;19940;-73
2024/03/24 07:50:30;;;;;;;;;;;;;;;;;;7553757;19;19934;-73
2024/03/24 07:53:02;;;;;;;;;;;;;;;;;;7548104;19;19927;-73
2024/03/24 07:55:33;;;;;;;;;;;;;;;;;;7555897;19;19930;-73
2024/03/24 07:58:05;;;;;;;;;;;;;;;;;;7539876;19;19919;-72
2024/03/24 08:00:36;;;;;;;;;;;;;;;;;;7539583;19;19918;-74
2024/03/24 08:03:07;;;;;;;;;;;;;;;;;;7569438;19;19923;-73
2024/03/24 08:05:40;;;;;;;;;;;;;;;;;;7568046;19;19922;-73
2024/03/24 08:08:12;;;;;;;;;;;;;;;;;;7575170;19;19922;-73
2024/03/24 08:10:43;;;;;;;;;;;;;;;;;;7553238;19;19918;-72
2024/03/24 08:13:15;;;;;;;;;;;;;;;;;;7556619;19;20150;-73
2024/03/24 08:15:46;;;;;;;;;;;;;;;;;;7572865;19;19926;-74
2024/03/24 08:18:17;;;;;;;;;;;;;;;;;;7567507;19;20046;-74
2024/03/24 08:20:50;;;;;;;;;;;;;;;;;;7568920;19;20475;-73
2024/03/24 08:23:22;;;;;;;;;;;;;;;;;;7562908;19;19918;-72
2024/03/24 08:25:53;;;;;;;;;;;;;;;;;;7534484;19;20565;-73
2024/03/24 08:28:26;;;;;;;;;;;;;;;;;;7561802;19;19918;-71
2024/03/24 08:30:58;;;;;;;;;;;;;;;;;;7565717;19;19922;-74
2024/03/24 08:33:29;;;;;;;;;;;;;;;;;;7517116;19;19980;-73
2024/03/24 08:36:01;;;;;;;;;;;;;;;;;;7537355;19;19982;-73
2024/03/24 08:38:33;;;;;;;;;;;;;;;;;;7554218;19;21064;-72
2024/03/24 08:41:04;;;;;;;;;;;;;;;;;;7551239;19;20493;-72
2024/03/24 08:43:36;;;;;;;;;;;;;;;;;;7554528;19;19922;-72
2024/03/24 08:46:08;;;;;;;;;;;;;;;;;;7553475;19;20018;-71
2024/03/24 08:48:39;;;;;;;;;;;;;;;;;;7542264;19;20378;-71
2024/03/24 08:51:11;;;;;;;;;;;;;;;;;;7540411;19;19930;-72
2024/03/24 08:53:43;;;;;;;;;;;;;;;;;;7529199;19;19950;-71
2024/03/24 08:56:15;;;;;;;;;;;;;;;;;;7533931;19;19938;-71
2024/03/24 08:58:46;;;;;;;;;;;;;;;;;;7522045;19;21073;-72
2024/03/24 09:01:18;;;;;;;;;;;;;;;;;;7521580;19;19921;-72
2024/03/24 09:03:49;;;;;;;;;;;;;;;;;;7552630;19;21253;-71
2024/03/24 09:06:21;;;;;;;;;;;;;;;;;;7554920;19;20272;-72
2024/03/24 09:08:52;;;;;;;;;;;;;;;;;;7519012;19;19952;-72
2024/03/24 09:11:24;;;;;;;;;;;;;;;;;;7556939;19;19930;-71
2024/03/24 09:13:56;;;;;;;;;;;;;;;;;;7542566;19;20023;-73
2024/03/24 09:16:27;;;;;;;;;;;;;;;;;;7526631;19;19918;-71
2024/03/24 09:18:59;;;;;;;;;;;;;;;;;;7539803;19;19927;-72
2024/03/24 09:21:30;;;;;;;;;;;;;;;;;;7544120;19;19914;-71
2024/03/24 09:24:01;;;;;;;;;;;;;;;;;;7554483;19;19922;-73
2024/03/24 09:26:35;;;;;;;;;;;;;;;;;;7528228;19;19922;-72
2024/03/24 09:29:06;;;;;;;;;;;;;;;;;;7526871;19;20268;-72
2024/03/24 09:31:37;;;;;;;;;;;;;;;;;;7506762;19;20856;-72
2024/03/24 09:34:09;;;;;;;;;;;;;;;;;;7540656;19;19918;-71
2024/03/24 09:36:40;;;;;;;;;;;;;;;;;;7509274;19;19930;-71
2024/03/24 09:39:15;;;;;;;;;;;;;;;;;;7500574;19;20810;-71
2024/03/24 09:41:47;;;;;;;;;;;;;;;;;;7540494;19;19918;-72
2024/03/24 09:44:19;;;;;;;;;;;;;;;;;;7511611;19;20918;-71
2024/03/24 09:46:50;;;;;;;;;;;;;;;;;;7525185;19;19952;-72
2024/03/24 09:49:22;;;;;;;;;;;;;;;;;;7517268;19;19925;-72
2024/03/24 09:51:54;;;;;;;;;;;;;;;;;;7512286;19;19932;-72
2024/03/24 09:54:25;;;;;;;;;;;;;;;;;;7541892;19;19924;-72
2024/03/24 09:56:57;;;;;;;;;;;;;;;;;;7551916;19;19935;-72
2024/03/24 09:59:29;;;;;;;;;;;;;;;;;;7529379;19;19918;-72
2024/03/24 10:02:01;;;;;;;;;;;;;;;;;;7505590;19;19919;-72
2024/03/24 10:04:32;;;;;;;;;;;;;;;;;;7520076;19;21311;-72
2024/03/24 10:07:04;;;;;;;;;;;;;;;;;;7543253;19;19926;-73
2024/03/24 10:09:35;;;;;;;;;;;;;;;;;;7512534;19;19966;-73
2024/03/24 10:12:07;;;;;;;;;;;;;;;;;;7498353;19;19919;-73
2024/03/24 10:14:38;;;;;;;;;;;;;;;;;;7484633;19;20411;-71
2024/03/24 10:17:10;;;;;;;;;;;;;;;;;;7507311;19;19918;-72
2024/03/24 10:19:42;;;;;;;;;;;;;;;;;;7566880;19;21005;-72
2024/03/24 10:22:14;;;;;;;;;;;;;;;;;;7522215;19;19954;-73
2024/03/24 10:24:45;;;;;;;;;;;;;;;;;;7490559;19;20000;-71
2024/03/24 10:27:17;;;;;;;;;;;;;;;;;;7520863;19;20654;-72
2024/03/24 10:29:51;;;;;;;;;;;;;;;;;;7519591;19;20035;-71
2024/03/24 10:32:24;;;;;;;;;;;;;;;;;;7494316;19;20295;-74
2024/03/24 10:34:57;;;;;;;;;;;;;;;;;;7417185;19;19948;-74
2024/03/24 10:37:28;;;;;;;;;;;;;;;;;;7506010;19;19923;-74
2024/03/24 10:40:00;;;;;;;;;;;;;;;;;;7516795;19;20492;-73
2024/03/24 10:42:31;;;;;;;;;;;;;;;;;;7496270;19;19927;-73
2024/03/24 10:45:03;;;;;;;;;;;;;;;;;;7544457;19;20338;-75
2024/03/24 10:47:34;;;;;;;;;;;;;;;;;;7519874;19;19928;-74
2024/03/24 10:50:06;;;;;;;;;;;;;;;;;;7501034;19;19939;-73
2024/03/24 10:52:37;;;;;;;;;;;;;;;;;;7521241;19;19923;-73
2024/03/24 10:55:09;;;;;;;;;;;;;;;;;;7469351;19;19922;-74
2024/03/24 10:57:41;;;;;;;;;;;;;;;;;;7494784;19;19918;-73
2024/03/24 11:00:13;;;;;;;;;;;;;;;;;;7505533;19;20279;-73
2024/03/24 11:02:45;;;;;;;;;;;;;;;;;;7482862;19;22728;-73
2024/03/24 11:05:16;;;;;;;;;;;;;;;;;;7517734;19;19919;-73
2024/03/24 11:07:48;;;;;;;;;;;;;;;;;;7488553;19;19954;-73
2024/03/24 11:10:19;;;;;;;;;;;;;;;;;;7461019;19;19922;-73
2024/03/24 11:12:52;;;;;;;;;;;;;;;;;;7473407;19;20029;-74
2024/03/24 11:15:24;;;;;;;;;;;;;;;;;;7472135;19;19937;-74
2024/03/24 11:17:55;;;;;;;;;;;;;;;;;;7422416;19;20295;-73
2024/03/24 11:20:27;;;;;;;;;;;;;;;;;;7395662;19;27616;-74
2024/03/24 11:23:00;;;;;;;;;;;;;;;;;;7354980;19;27924;-75
2024/03/24 11:25:31;;;;;;;;;;;;;;;;;;7389433;19;27489;-76
2024/03/24 11:28:03;;;;;;;;;;;;;;;;;;7350368;19;29265;-72
2024/03/24 11:30:36;;;;;;;;;;;;;;;;;;7397415;19;28060;-75
2024/03/24 11:33:12;;;;;;;;;;;;;;;;;;7387203;19;28643;-75
2024/03/24 11:35:47;;;;;;;;;;;;;;;;;;7357999;19;28387;-75
2024/03/24 11:38:22;;;;;;;;;;;;;;;;;;7351964;19;29301;-72
2024/03/24 11:40:55;;;;;;;;;;;;;;;;;;7354284;19;28122;-73
2024/03/24 11:43:27;;;;;;;;;;;;;;;;;;7350151;19;28163;-73
2024/03/24 11:45:59;;;;;;;;;;;;;;;;;;7374000;19;28175;-73
2024/03/24 11:48:31;;;;;;;;;;;;;;;;;;7387120;19;28550;-73
2024/03/24 11:51:03;;;;;;;;;;;;;;;;;;7356104;19;28493;-74
2024/03/24 11:53:35;;;;;;;;;;;;;;;;;;7381042;19;30133;-76
2024/03/24 11:56:08;;;;;;;;;;;;;;;;;;7396577;19;28214;-73
2024/03/24 11:58:40;;;;;;;;;;;;;;;;;;7335930;19;28801;-73
2024/03/24 12:01:12;;;;;;;;;;;;;;;;;;7355430;19;28501;-72
2024/03/24 12:03:44;;;;;;;;;;;;;;;;;;7352007;19;28977;-72
2024/03/24 12:06:16;;;;;;;;;;;;;;;;;;7358098;19;29260;-74
2024/03/24 12:08:48;;;;;;;;;;;;;;;;;;7356275;19;28864;-74
2024/03/24 12:11:20;;;;;;;;;;;;;;;;;;7362901;19;32928;-74
2024/03/24 12:13:52;;;;;;;;;;;;;;;;;;7326788;19;28977;-73
2024/03/24 12:16:24;;;;;;;;;;;;;;;;;;7351872;19;29603;-74
2024/03/24 12:18:56;;;;;;;;;;;;;;;;;;7310363;19;29665;-74
2024/03/24 12:21:30;;;;;;;;;;;;;;;;;;7325647;19;28927;-73
2024/03/24 12:24:03;;;;;;;;;;;;;;;;;;7362810;19;28908;-73
2024/03/24 12:26:35;;;;;;;;;;;;;;;;;;7366102;19;28720;-74
2024/03/24 12:29:06;;;;;;;;;;;;;;;;;;7381779;19;29202;-74
2024/03/24 12:31:38;;;;;;;;;;;;;;;;;;7376882;19;28597;-74
2024/03/24 12:34:10;;;;;;;;;;;;;;;;;;7356503;19;29028;-72
2024/03/24 12:36:42;;;;;;;;;;;;;;;;;;7365792;19;28879;-73
2024/03/24 12:39:13;;;;;;;;;;;;;;;;;;7392017;19;28516;-73
2024/03/24 12:41:45;;;;;;;;;;;;;;;;;;7383850;19;29088;-72
2024/03/24 12:44:16;;;;;;;;;;;;;;;;;;7399312;19;29028;-73
2024/03/24 12:46:48;;;;;;;;;;;;;;;;;;7373916;19;28394;-74
2024/03/24 12:49:26;;;;;;;;;;;;;;;;;;7400599;19;28648;-71
2024/03/24 12:51:57;;;;;;;;;;;;;;;;;;7381140;19;28313;-73
2024/03/24 12:54:29;;;;;;;;;;;;;;;;;;7350511;19;28082;-72
2024/03/24 12:57:01;;;;;;;;;;;;;;;;;;7367064;19;27978;-73
2024/03/24 12:59:32;;;;;;;;;;;;;;;;;;7391768;19;28042;-73
2024/03/24 13:02:05;;;;;;;;;;;;;;;;;;7369405;19;28251;-73
2024/03/24 13:04:36;;;;;;;;;;;;;;;;;;7421927;19;28749;-72
2024/03/24 13:07:08;;;;;;;;;;;;;;;;;;7384344;19;29393;-73
2024/03/24 13:09:40;;;;;;;;;;;;;;;;;;7393438;19;28612;-73
2024/03/24 13:12:13;;;;;;;;;;;;;;;;;;7401811;19;28273;-74
2024/03/24 13:14:45;;;;;;;;;;;;;;;;;;7386174;19;28511;-73
2024/03/24 13:17:18;;;;;;;;;;;;;;;;;;7398497;19;29136;-73
2024/03/24 13:19:50;;;;;;;;;;;;;;;;;;7400943;19;29221;-74
2024/03/24 13:22:23;;;;;;;;;;;;;;;;;;7404335;19;51582;-74
2024/03/24 13:25:01;;;;;;;;;;;;;;;;;;7354193;19;29720;-73
2024/03/24 13:27:44;;;;;;;;;;;;;;;;;;7390642;19;1115805;-73
2024/03/24 13:30:16;;;;;;;;;;;;;;;;;;7403144;19;30126;-75
2024/03/24 13:32:48;;;;;;;;;;;;;;;;;;7397109;19;29725;-73
2024/03/24 13:35:20;;;;;;;;;;;;;;;;;;7450231;19;29797;-73
2024/03/24 13:37:52;;;;;;;;;;;;;;;;;;7403647;19;29425;-78
2024/03/24 13:40:24;;;;;;;;;;;;;;;;;;7479960;19;30663;-74
2024/03/24 13:42:56;;;;;;;;;;;;;;;;;;7450204;19;29705;-75
2024/03/24 13:45:28;;;;;;;;;;;;;;;;;;7423664;19;29703;-75
2024/03/24 13:48:00;;;;;;;;;;;;;;;;;;7405495;19;30169;-75
2024/03/24 13:50:32;;;;;;;;;;;;;;;;;;7440957;19;30661;-76
2024/03/24 13:53:03;;;;;;;;;;;;;;;;;;7453582;19;30350;-74
2024/03/24 13:55:36;;;;;;;;;;;;;;;;;;7580343;19;19915;-74
2024/03/24 13:58:08;;;;;;;;;;;;;;;;;;7575672;19;19965;-72
2024/03/24 14:00:42;;;;;;;;;;;;;;;;;;7548809;19;19998;-72
2024/03/24 14:03:13;;;;;;;;;;;;;;;;;;7578998;19;19922;-72
2024/03/24 14:05:45;;;;;;;;;;;;;;;;;;7558752;19;19922;-73
2024/03/24 14:08:16;;;;;;;;;;;;;;;;;;7590865;19;19926;-72
2024/03/24 14:10:49;;;;;;;;;;;;;;;;;;7599943;19;20827;-72
2024/03/24 14:13:20;;;;;;;;;;;;;;;;;;7589545;19;20887;-73
2024/03/24 14:15:51;;;;;;;;;;;;;;;;;;7570583;19;19925;-73
2024/03/24 14:18:25;;;;;;;;;;;;;;;;;;7614052;19;19925;-74
2024/03/24 14:20:56;;;;;;;;;;;;;;;;;;7596518;19;20153;-73
2024/03/24 14:23:28;;;;;;;;;;;;;;;;;;7608699;19;19941;-72
2024/03/24 14:26:00;;;;;;;;;;;;;;;;;;7583498;19;20788;-73
2024/03/24 14:28:32;;;;;;;;;;;;;;;;;;7611749;19;19922;-74
2024/03/24 14:31:04;;;;;;;;;;;;;;;;;;7600610;19;19926;-73
2024/03/24 14:33:35;;;;;;;;;;;;;;;;;;7601359;19;20020;-73
2024/03/24 14:36:07;;;;;;;;;;;;;;;;;;7594773;19;19922;-73
2024/03/24 14:38:38;;;;;;;;;;;;;;;;;;7567996;19;19915;-73
2024/03/24 14:41:10;;;;;;;;;;;;;;;;;;7574894;19;20518;-74
2024/03/24 14:43:42;;;;;;;;;;;;;;;;;;7564766;19;19943;-73
2024/03/24 14:46:13;;;;;;;;;;;;;;;;;;7565355;19;19994;-72
2024/03/24 14:48:45;;;;;;;;;;;;;;;;;;7570318;19;19933;-73
2024/03/24 14:51:16;;;;;;;;;;;;;;;;;;7520042;19;19918;-76
2024/03/24 14:53:48;;;;;;;;;;;;;;;;;;7475685;19;19944;-74
2024/03/24 14:56:20;;;;;;;;;;;;;;;;;;7477386;19;20015;-75
2024/03/24 14:58:52;;;;;;;;;;;;;;;;;;7527103;19;20714;-74
2024/03/24 15:01:24;;;;;;;;;;;;;;;;;;7550144;19;19919;-75
2024/03/24 15:03:55;;;;;;;;;;;;;;;;;;7491813;19;19944;-74
2024/03/24 15:06:27;;;;;;;;;;;;;;;;;;7505942;19;20329;-75
2024/03/24 15:08:59;;;;;;;;;;;;;;;;;;7507159;19;19915;-74
2024/03/24 15:11:31;;;;;;;;;;;;;;;;;;7519543;19;37518;-75
2024/03/24 15:14:03;;;;;;;;;;;;;;;;;;7485982;19;21039;-73
2024/03/24 15:16:35;;;;;;;;;;;;;;;;;;7478828;19;19994;-73
2024/03/24 15:19:06;;;;;;;;;;;;;;;;;;7478253;19;20007;-73
2024/03/24 15:21:41;;;;;;;;;;;;;;;;;;7488800;19;19919;-73
2024/03/24 15:27:31;;;;;;;;;;;;;;;;;;7332866;19;37635;-74
2024/03/24 15:30:06;;;;;;;;;;;;;;;;;;7331219;19;38231;-72
2024/03/24 15:32:39;;;;;;;;;;;;;;;;;;7363372;19;37852;-73
2024/03/24 15:35:11;;;;;;;;;;;;;;;;;;7408945;19;39846;-72
2024/03/24 15:37:47;;;;;;;;;;;;;;;;;;7438502;19;19954;-73
2024/03/24 15:40:26;;;;;;;;;;;;;;;;;;7445617;19;19923;-75
2024/03/24 15:42:58;;;;;;;;;;;;;;;;;;7434926;19;19933;-72
2024/03/24 15:45:30;;;;;;;;;;;;;;;;;;7418620;19;19923;-73
2024/03/24 15:48:02;;;;;;;;;;;;;;;;;;7444970;19;19982;-72
2024/03/24 15:50:35;;;;;;;;;;;;;;;;;;7432231;19;19923;-73
2024/03/24 15:53:07;;;;;;;;;;;;;;;;;;7426694;19;19923;-72
2024/03/24 15:55:42;;;;;;;;;;;;;;;;;;7464781;19;20211;-71
2024/03/24 15:58:14;;;;;;;;;;;;;;;;;;7430006;19;19934;-74
2024/03/24 16:00:50;;;;;;;;;;;;;;;;;;7399594;19;20466;-73
2024/03/24 16:03:23;;;;;;;;;;;;;;;;;;7439110;19;19921;-73
2024/03/24 16:05:55;;;;;;;;;;;;;;;;;;7407527;19;20137;-74
2024/03/24 16:08:27;;;;;;;;;;;;;;;;;;7454198;19;19919;-75
2024/03/24 16:10:58;;;;;;;;;;;;;;;;;;7446513;19;20440;-73
2024/03/24 16:13:30;;;;;;;;;;;;;;;;;;7438764;19;19923;-73
2024/03/24 16:16:02;;;;;;;;;;;;;;;;;;7424526;19;19933;-72
2024/03/24 16:18:34;;;;;;;;;;;;;;;;;;7542418;19;20026;-71
2024/03/24 16:21:06;;;;;;;;;;;;;;;;;;7594819;19;20443;-71
2024/03/24 16:23:37;;;;;;;;;;;;;;;;;;7605127;19;19950;-71
2024/03/24 16:26:09;;;;;;;;;;;;;;;;;;7584382;19;19997;-71
2024/03/24 16:28:40;;;;;;;;;;;;;;;;;;7598935;19;20361;-73
2024/03/24 16:31:12;;;;;;;;;;;;;;;;;;7599402;19;19933;-71
2024/03/24 16:33:43;;;;;;;;;;;;;;;;;;7593829;19;19938;-71
2024/03/24 16:36:17;;;;;;;;;;;;;;;;;;7059846;19;10000127;-72
2024/03/24 16:38:48;;;;;;;;;;;;;;;;;;7587776;19;19915;-70
2024/03/24 16:41:20;;;;;;;;;;;;;;;;;;7589268;19;20448;-71
2024/03/24 16:43:51;;;;;;;;;;;;;;;;;;7593079;19;19919;-73
2024/03/24 16:46:23;;;;;;;;;;;;;;;;;;7586828;19;19922;-72
2024/03/24 16:48:54;;;;;;;;;;;;;;;;;;7581907;19;20698;-71